sensor_id;sensor_type;location;lat;lon;timestamp;P1;durP1;ratioP1;P2;durP2;ratioP2
63120;SDS011;54478;48.684;20.114;2023-12-29T00:01:07;57.25;;;27.20;;
63120;SDS011;54478;48.684;20.114;2023-12-29T00:03:35;55.03;;;26.98;;
63120;SDS011;54478;48.684;20.114;2023-12-29T00:06:03;68.07;;;29.98;;
63120;SDS011;54478;48.684;20.114;2023-12-29T00:08:32;84.43;;;32.67;;
63120;SDS011;54478;48.684;20.114;2023-12-29T00:11:00;82.57;;;35.60;;
63120;SDS011;54478;48.684;20.114;2023-12-29T00:13:28;87.78;;;40.30;;
63120;SDS011;54478;48.684;20.114;2023-12-29T00:15:56;78.25;;;35.50;;
63120;SDS011;54478;48.684;20.114;2023-12-29T00:18:24;88.60;;;35.90;;
63120;SDS011;54478;48.684;20.114;2023-12-29T00:20:52;50.08;;;23.40;;
63120;SDS011;54478;48.684;20.114;2023-12-29T00:23:20;54.95;;;24.92;;
63120;SDS011;54478;48.684;20.114;2023-12-29T00:25:48;51.03;;;24.38;;
63120;SDS011;54478;48.684;20.114;2023-12-29T00:28:16;64.20;;;28.30;;
63120;SDS011;54478;48.684;20.114;2023-12-29T00:30:44;54.83;;;27.08;;
63120;SDS011;54478;48.684;20.114;2023-12-29T00:33:12;65.68;;;29.27;;
63120;SDS011;54478;48.684;20.114;2023-12-29T00:35:40;57.22;;;27.90;;
63120;SDS011;54478;48.684;20.114;2023-12-29T00:38:08;58.58;;;27.15;;
63120;SDS011;54478;48.684;20.114;2023-12-29T00:40:36;53.80;;;29.00;;
63120;SDS011;54478;48.684;20.114;2023-12-29T00:43:04;60.78;;;27.63;;
63120;SDS011;54478;48.684;20.114;2023-12-29T00:45:32;60.03;;;26.58;;
63120;SDS011;54478;48.684;20.114;2023-12-29T00:48:01;58.80;;;27.45;;
63120;SDS011;54478;48.684;20.114;2023-12-29T00:50:29;62.03;;;28.17;;
63120;SDS011;54478;48.684;20.114;2023-12-29T00:52:57;47.90;;;25.38;;
63120;SDS011;54478;48.684;20.114;2023-12-29T00:55:25;58.72;;;26.38;;
63120;SDS011;54478;48.684;20.114;2023-12-29T00:57:53;65.28;;;26.27;;
63120;SDS011;54478;48.684;20.114;2023-12-29T01:00:22;50.72;;;24.65;;
63120;SDS011;54478;48.684;20.114;2023-12-29T01:02:50;61.63;;;28.17;;
63120;SDS011;54478;48.684;20.114;2023-12-29T01:05:18;50.85;;;25.33;;
63120;SDS011;54478;48.684;20.114;2023-12-29T01:07:46;58.03;;;27.67;;
63120;SDS011;54478;48.684;20.114;2023-12-29T01:10:14;67.28;;;28.08;;
63120;SDS011;54478;48.684;20.114;2023-12-29T01:12:42;60.08;;;27.13;;
63120;SDS011;54478;48.684;20.114;2023-12-29T01:15:10;55.40;;;27.25;;
63120;SDS011;54478;48.684;20.114;2023-12-29T01:17:38;60.63;;;26.65;;
63120;SDS011;54478;48.684;20.114;2023-12-29T01:20:06;63.03;;;27.92;;
63120;SDS011;54478;48.684;20.114;2023-12-29T01:22:35;60.85;;;28.02;;
63120;SDS011;54478;48.684;20.114;2023-12-29T01:25:03;90.22;;;35.92;;
63120;SDS011;54478;48.684;20.114;2023-12-29T01:27:32;98.20;;;38.80;;
63120;SDS011;54478;48.684;20.114;2023-12-29T01:30:00;96.07;;;37.42;;
63120;SDS011;54478;48.684;20.114;2023-12-29T01:32:28;86.28;;;36.15;;
63120;SDS011;54478;48.684;20.114;2023-12-29T01:34:56;74.00;;;31.85;;
63120;SDS011;54478;48.684;20.114;2023-12-29T01:37:24;81.82;;;35.45;;
63120;SDS011;54478;48.684;20.114;2023-12-29T01:39:52;77.70;;;34.22;;
63120;SDS011;54478;48.684;20.114;2023-12-29T01:42:20;78.70;;;34.13;;
63120;SDS011;54478;48.684;20.114;2023-12-29T01:44:48;73.75;;;31.15;;
63120;SDS011;54478;48.684;20.114;2023-12-29T01:47:19;70.05;;;30.17;;
63120;SDS011;54478;48.684;20.114;2023-12-29T01:49:48;70.88;;;29.83;;
63120;SDS011;54478;48.684;20.114;2023-12-29T01:52:17;59.67;;;28.40;;
63120;SDS011;54478;48.684;20.114;2023-12-29T01:54:46;65.88;;;29.50;;
63120;SDS011;54478;48.684;20.114;2023-12-29T01:57:16;59.75;;;28.48;;
63120;SDS011;54478;48.684;20.114;2023-12-29T01:59:44;60.42;;;30.05;;
63120;SDS011;54478;48.684;20.114;2023-12-29T02:02:13;68.63;;;32.65;;
63120;SDS011;54478;48.684;20.114;2023-12-29T02:04:41;68.32;;;28.80;;
63120;SDS011;54478;48.684;20.114;2023-12-29T02:07:09;75.78;;;33.33;;
63120;SDS011;54478;48.684;20.114;2023-12-29T02:09:37;77.10;;;33.80;;
63120;SDS011;54478;48.684;20.114;2023-12-29T02:12:06;63.58;;;29.35;;
63120;SDS011;54478;48.684;20.114;2023-12-29T02:14:34;51.65;;;25.77;;
63120;SDS011;54478;48.684;20.114;2023-12-29T02:17:10;47.38;;;23.15;;
63120;SDS011;54478;48.684;20.114;2023-12-29T02:19:42;47.15;;;24.75;;
63120;SDS011;54478;48.684;20.114;2023-12-29T02:22:12;47.58;;;20.48;;
63120;SDS011;54478;48.684;20.114;2023-12-29T02:24:45;39.03;;;19.42;;
63120;SDS011;54478;48.684;20.114;2023-12-29T02:32:53;33.22;;;15.15;;
63120;SDS011;54478;48.684;20.114;2023-12-29T02:35:23;38.28;;;18.23;;
63120;SDS011;54478;48.684;20.114;2023-12-29T02:37:49;36.25;;;17.42;;
63120;SDS011;54478;48.684;20.114;2023-12-29T02:40:17;36.58;;;16.33;;
63120;SDS011;54478;48.684;20.114;2023-12-29T02:42:49;31.95;;;16.58;;
63120;SDS011;54478;48.684;20.114;2023-12-29T02:45:17;33.20;;;15.53;;
63120;SDS011;54478;48.684;20.114;2023-12-29T02:47:43;34.97;;;16.52;;
63120;SDS011;54478;48.684;20.114;2023-12-29T02:50:11;37.00;;;16.63;;
63120;SDS011;54478;48.684;20.114;2023-12-29T02:52:39;36.42;;;16.98;;
63120;SDS011;54478;48.684;20.114;2023-12-29T02:55:05;33.15;;;15.27;;
63120;SDS011;54478;48.684;20.114;2023-12-29T02:57:33;28.83;;;14.50;;
63120;SDS011;54478;48.684;20.114;2023-12-29T03:00:01;35.08;;;16.02;;
63120;SDS011;54478;48.684;20.114;2023-12-29T03:02:27;34.50;;;16.50;;
63120;SDS011;54478;48.684;20.114;2023-12-29T03:04:55;41.40;;;21.23;;
63120;SDS011;54478;48.684;20.114;2023-12-29T03:07:20;29.25;;;16.05;;
63120;SDS011;54478;48.684;20.114;2023-12-29T03:09:48;30.75;;;15.65;;
63120;SDS011;54478;48.684;20.114;2023-12-29T03:12:16;30.70;;;14.60;;
63120;SDS011;54478;48.684;20.114;2023-12-29T03:14:44;29.52;;;14.93;;
63120;SDS011;54478;48.684;20.114;2023-12-29T03:17:12;27.10;;;14.30;;
63120;SDS011;54478;48.684;20.114;2023-12-29T03:19:40;39.40;;;15.75;;
63120;SDS011;54478;48.684;20.114;2023-12-29T03:22:08;28.00;;;14.18;;
63120;SDS011;54478;48.684;20.114;2023-12-29T03:24:36;29.95;;;16.17;;
63120;SDS011;54478;48.684;20.114;2023-12-29T03:27:05;33.30;;;14.75;;
63120;SDS011;54478;48.684;20.114;2023-12-29T03:29:33;31.55;;;14.00;;
63120;SDS011;54478;48.684;20.114;2023-12-29T03:32:01;27.27;;;14.60;;
63120;SDS011;54478;48.684;20.114;2023-12-29T03:34:29;28.25;;;13.43;;
63120;SDS011;54478;48.684;20.114;2023-12-29T03:36:57;34.33;;;14.80;;
63120;SDS011;54478;48.684;20.114;2023-12-29T03:39:25;27.83;;;13.40;;
63120;SDS011;54478;48.684;20.114;2023-12-29T03:41:53;25.67;;;13.50;;
63120;SDS011;54478;48.684;20.114;2023-12-29T03:44:21;31.25;;;12.75;;
63120;SDS011;54478;48.684;20.114;2023-12-29T03:46:49;24.00;;;12.20;;
63120;SDS011;54478;48.684;20.114;2023-12-29T03:49:18;25.08;;;12.38;;
63120;SDS011;54478;48.684;20.114;2023-12-29T03:51:47;27.60;;;12.63;;
63120;SDS011;54478;48.684;20.114;2023-12-29T03:54:15;20.75;;;10.85;;
63120;SDS011;54478;48.684;20.114;2023-12-29T03:56:45;21.80;;;11.25;;
63120;SDS011;54478;48.684;20.114;2023-12-29T03:59:13;23.25;;;10.85;;
63120;SDS011;54478;48.684;20.114;2023-12-29T04:01:41;22.70;;;11.15;;
63120;SDS011;54478;48.684;20.114;2023-12-29T04:04:09;44.80;;;17.27;;
63120;SDS011;54478;48.684;20.114;2023-12-29T04:06:37;27.30;;;13.48;;
63120;SDS011;54478;48.684;20.114;2023-12-29T04:09:05;33.60;;;15.77;;
63120;SDS011;54478;48.684;20.114;2023-12-29T04:11:33;34.17;;;13.57;;
63120;SDS011;54478;48.684;20.114;2023-12-29T04:14:01;24.60;;;12.82;;
63120;SDS011;54478;48.684;20.114;2023-12-29T04:16:27;22.52;;;11.68;;
63120;SDS011;54478;48.684;20.114;2023-12-29T04:18:55;31.02;;;14.45;;
63120;SDS011;54478;48.684;20.114;2023-12-29T04:21:23;26.73;;;12.70;;
63120;SDS011;54478;48.684;20.114;2023-12-29T04:23:51;21.33;;;10.73;;
63120;SDS011;54478;48.684;20.114;2023-12-29T04:26:19;20.67;;;10.10;;
63120;SDS011;54478;48.684;20.114;2023-12-29T04:28:47;27.83;;;12.18;;
63120;SDS011;54478;48.684;20.114;2023-12-29T04:31:15;29.48;;;13.52;;
63120;SDS011;54478;48.684;20.114;2023-12-29T04:33:43;29.00;;;15.63;;
63120;SDS011;54478;48.684;20.114;2023-12-29T04:36:12;28.08;;;15.27;;
63120;SDS011;54478;48.684;20.114;2023-12-29T04:38:41;28.20;;;12.77;;
63120;SDS011;54478;48.684;20.114;2023-12-29T04:41:11;22.58;;;11.70;;
63120;SDS011;54478;48.684;20.114;2023-12-29T04:43:39;32.58;;;15.02;;
63120;SDS011;54478;48.684;20.114;2023-12-29T04:46:07;23.48;;;11.32;;
63120;SDS011;54478;48.684;20.114;2023-12-29T04:48:32;26.92;;;12.52;;
63120;SDS011;54478;48.684;20.114;2023-12-29T04:51:01;25.65;;;12.80;;
63120;SDS011;54478;48.684;20.114;2023-12-29T04:53:29;30.63;;;13.45;;
63120;SDS011;54478;48.684;20.114;2023-12-29T04:55:57;27.15;;;12.07;;
63120;SDS011;54478;48.684;20.114;2023-12-29T04:58:25;26.88;;;12.73;;
63120;SDS011;54478;48.684;20.114;2023-12-29T05:00:53;31.80;;;14.77;;
63120;SDS011;54478;48.684;20.114;2023-12-29T05:03:21;28.23;;;14.55;;
63120;SDS011;54478;48.684;20.114;2023-12-29T05:05:49;27.40;;;13.93;;
63120;SDS011;54478;48.684;20.114;2023-12-29T05:08:17;26.05;;;14.57;;
63120;SDS011;54478;48.684;20.114;2023-12-29T05:10:45;26.00;;;13.48;;
63120;SDS011;54478;48.684;20.114;2023-12-29T05:13:13;28.75;;;13.93;;
63120;SDS011;54478;48.684;20.114;2023-12-29T05:15:41;30.77;;;15.15;;
63120;SDS011;54478;48.684;20.114;2023-12-29T05:18:09;32.63;;;15.27;;
63120;SDS011;54478;48.684;20.114;2023-12-29T05:20:37;30.52;;;15.52;;
63120;SDS011;54478;48.684;20.114;2023-12-29T05:23:05;30.17;;;15.30;;
63120;SDS011;54478;48.684;20.114;2023-12-29T05:25:33;36.47;;;17.48;;
63120;SDS011;54478;48.684;20.114;2023-12-29T05:28:01;32.83;;;17.63;;
63120;SDS011;54478;48.684;20.114;2023-12-29T05:30:29;107.50;;;36.05;;
63120;SDS011;54478;48.684;20.114;2023-12-29T05:32:59;33.72;;;16.80;;
63120;SDS011;54478;48.684;20.114;2023-12-29T05:35:27;25.63;;;13.43;;
63120;SDS011;54478;48.684;20.114;2023-12-29T05:37:55;36.05;;;17.77;;
63120;SDS011;54478;48.684;20.114;2023-12-29T05:40:23;23.73;;;12.30;;
63120;SDS011;54478;48.684;20.114;2023-12-29T05:42:51;28.58;;;13.93;;
63120;SDS011;54478;48.684;20.114;2023-12-29T05:45:19;43.50;;;21.13;;
63120;SDS011;54478;48.684;20.114;2023-12-29T05:47:45;37.70;;;17.33;;
63120;SDS011;54478;48.684;20.114;2023-12-29T05:50:13;41.08;;;17.98;;
63120;SDS011;54478;48.684;20.114;2023-12-29T05:52:41;36.78;;;17.40;;
63120;SDS011;54478;48.684;20.114;2023-12-29T05:55:09;30.00;;;14.15;;
63120;SDS011;54478;48.684;20.114;2023-12-29T05:57:37;28.33;;;14.65;;
63120;SDS011;54478;48.684;20.114;2023-12-29T06:00:05;36.65;;;16.08;;
63120;SDS011;54478;48.684;20.114;2023-12-29T06:02:34;36.78;;;15.93;;
63120;SDS011;54478;48.684;20.114;2023-12-29T06:05:02;40.75;;;17.98;;
63120;SDS011;54478;48.684;20.114;2023-12-29T06:07:30;42.97;;;16.60;;
63120;SDS011;54478;48.684;20.114;2023-12-29T06:09:58;39.40;;;16.63;;
63120;SDS011;54478;48.684;20.114;2023-12-29T06:12:26;35.83;;;16.75;;
63120;SDS011;54478;48.684;20.114;2023-12-29T06:14:54;36.20;;;15.85;;
63120;SDS011;54478;48.684;20.114;2023-12-29T06:17:22;30.55;;;12.68;;
63120;SDS011;54478;48.684;20.114;2023-12-29T06:19:50;23.15;;;13.65;;
63120;SDS011;54478;48.684;20.114;2023-12-29T06:22:18;39.97;;;19.45;;
63120;SDS011;54478;48.684;20.114;2023-12-29T06:24:46;48.65;;;22.25;;
63120;SDS011;54478;48.684;20.114;2023-12-29T06:27:15;41.22;;;19.10;;
63120;SDS011;54478;48.684;20.114;2023-12-29T06:29:43;36.25;;;17.23;;
63120;SDS011;54478;48.684;20.114;2023-12-29T06:32:11;42.65;;;20.90;;
63120;SDS011;54478;48.684;20.114;2023-12-29T06:34:40;43.05;;;20.45;;
63120;SDS011;54478;48.684;20.114;2023-12-29T06:37:06;29.05;;;15.25;;
63120;SDS011;54478;48.684;20.114;2023-12-29T06:39:34;25.77;;;13.20;;
63120;SDS011;54478;48.684;20.114;2023-12-29T06:42:03;32.33;;;15.50;;
63120;SDS011;54478;48.684;20.114;2023-12-29T06:44:31;31.40;;;15.90;;
63120;SDS011;54478;48.684;20.114;2023-12-29T06:46:59;37.40;;;17.77;;
63120;SDS011;54478;48.684;20.114;2023-12-29T06:49:27;43.08;;;17.23;;
63120;SDS011;54478;48.684;20.114;2023-12-29T06:51:55;30.02;;;14.60;;
63120;SDS011;54478;48.684;20.114;2023-12-29T06:54:23;36.13;;;13.95;;
63120;SDS011;54478;48.684;20.114;2023-12-29T06:56:51;38.05;;;15.55;;
63120;SDS011;54478;48.684;20.114;2023-12-29T06:59:21;36.30;;;15.35;;
63120;SDS011;54478;48.684;20.114;2023-12-29T07:01:49;54.13;;;22.63;;
63120;SDS011;54478;48.684;20.114;2023-12-29T07:04:17;46.67;;;20.30;;
63120;SDS011;54478;48.684;20.114;2023-12-29T07:06:46;45.35;;;19.70;;
63120;SDS011;54478;48.684;20.114;2023-12-29T07:09:14;36.42;;;18.15;;
63120;SDS011;54478;48.684;20.114;2023-12-29T07:11:46;34.92;;;16.63;;
63120;SDS011;54478;48.684;20.114;2023-12-29T07:14:15;40.38;;;18.88;;
63120;SDS011;54478;48.684;20.114;2023-12-29T07:16:43;32.00;;;18.55;;
63120;SDS011;54478;48.684;20.114;2023-12-29T07:19:11;34.28;;;17.13;;
63120;SDS011;54478;48.684;20.114;2023-12-29T07:21:39;37.28;;;17.63;;
63120;SDS011;54478;48.684;20.114;2023-12-29T07:24:07;31.88;;;16.45;;
63120;SDS011;54478;48.684;20.114;2023-12-29T07:26:35;35.85;;;17.20;;
63120;SDS011;54478;48.684;20.114;2023-12-29T07:29:03;54.10;;;24.58;;
63120;SDS011;54478;48.684;20.114;2023-12-29T07:31:31;45.83;;;22.85;;
63120;SDS011;54478;48.684;20.114;2023-12-29T07:34:01;62.60;;;31.40;;
63120;SDS011;54478;48.684;20.114;2023-12-29T07:36:29;59.40;;;28.83;;
63120;SDS011;54478;48.684;20.114;2023-12-29T07:38:57;56.97;;;26.02;;
63120;SDS011;54478;48.684;20.114;2023-12-29T07:41:25;45.92;;;21.60;;
63120;SDS011;54478;48.684;20.114;2023-12-29T07:43:53;40.08;;;18.23;;
63120;SDS011;54478;48.684;20.114;2023-12-29T07:46:27;51.92;;;24.15;;
63120;SDS011;54478;48.684;20.114;2023-12-29T07:48:52;48.80;;;22.92;;
63120;SDS011;54478;48.684;20.114;2023-12-29T07:51:21;46.50;;;18.08;;
63120;SDS011;54478;48.684;20.114;2023-12-29T07:53:49;45.03;;;19.00;;
63120;SDS011;54478;48.684;20.114;2023-12-29T07:56:17;51.70;;;22.52;;
63120;SDS011;54478;48.684;20.114;2023-12-29T07:58:45;51.83;;;21.15;;
63120;SDS011;54478;48.684;20.114;2023-12-29T08:01:13;74.28;;;28.48;;
63120;SDS011;54478;48.684;20.114;2023-12-29T08:03:41;39.80;;;17.50;;
63120;SDS011;54478;48.684;20.114;2023-12-29T08:06:09;42.25;;;20.02;;
63120;SDS011;54478;48.684;20.114;2023-12-29T08:08:37;43.97;;;18.50;;
63120;SDS011;54478;48.684;20.114;2023-12-29T08:11:05;58.13;;;26.70;;
63120;SDS011;54478;48.684;20.114;2023-12-29T08:13:33;47.55;;;18.13;;
63120;SDS011;54478;48.684;20.114;2023-12-29T08:16:01;161.75;;;65.13;;
63120;SDS011;54478;48.684;20.114;2023-12-29T08:18:29;75.63;;;29.13;;
63120;SDS011;54478;48.684;20.114;2023-12-29T08:20:57;66.20;;;29.10;;
63120;SDS011;54478;48.684;20.114;2023-12-29T08:23:27;76.80;;;30.52;;
63120;SDS011;54478;48.684;20.114;2023-12-29T08:25:56;72.20;;;28.23;;
63120;SDS011;54478;48.684;20.114;2023-12-29T08:28:24;65.43;;;25.15;;
63120;SDS011;54478;48.684;20.114;2023-12-29T08:30:52;55.95;;;24.67;;
63120;SDS011;54478;48.684;20.114;2023-12-29T08:33:20;50.90;;;20.70;;
63120;SDS011;54478;48.684;20.114;2023-12-29T08:35:48;69.45;;;23.60;;
63120;SDS011;54478;48.684;20.114;2023-12-29T08:38:16;63.33;;;25.13;;
63120;SDS011;54478;48.684;20.114;2023-12-29T08:40:42;58.95;;;26.33;;
63120;SDS011;54478;48.684;20.114;2023-12-29T08:43:10;62.80;;;25.60;;
63120;SDS011;54478;48.684;20.114;2023-12-29T08:45:38;46.13;;;19.02;;
63120;SDS011;54478;48.684;20.114;2023-12-29T08:48:03;50.25;;;19.52;;
63120;SDS011;54478;48.684;20.114;2023-12-29T08:50:32;60.65;;;22.38;;
63120;SDS011;54478;48.684;20.114;2023-12-29T08:53:00;50.15;;;18.48;;
63120;SDS011;54478;48.684;20.114;2023-12-29T08:55:28;54.03;;;21.17;;
63120;SDS011;54478;48.684;20.114;2023-12-29T08:57:56;51.88;;;22.45;;
63120;SDS011;54478;48.684;20.114;2023-12-29T09:00:24;40.50;;;17.35;;
63120;SDS011;54478;48.684;20.114;2023-12-29T09:02:52;38.00;;;16.70;;
63120;SDS011;54478;48.684;20.114;2023-12-29T09:05:20;34.00;;;13.95;;
63120;SDS011;54478;48.684;20.114;2023-12-29T09:07:48;42.05;;;18.15;;
63120;SDS011;54478;48.684;20.114;2023-12-29T09:10:16;44.42;;;20.08;;
63120;SDS011;54478;48.684;20.114;2023-12-29T09:12:44;48.25;;;21.90;;
63120;SDS011;54478;48.684;20.114;2023-12-29T09:15:12;52.15;;;25.55;;
63120;SDS011;54478;48.684;20.114;2023-12-29T09:17:40;44.35;;;21.58;;
63120;SDS011;54478;48.684;20.114;2023-12-29T09:20:09;46.83;;;22.48;;
63120;SDS011;54478;48.684;20.114;2023-12-29T09:22:37;51.45;;;23.02;;
63120;SDS011;54478;48.684;20.114;2023-12-29T09:25:06;49.03;;;25.80;;
63120;SDS011;54478;48.684;20.114;2023-12-29T09:27:34;35.40;;;17.15;;
63120;SDS011;54478;48.684;20.114;2023-12-29T09:30:03;41.55;;;18.45;;
63120;SDS011;54478;48.684;20.114;2023-12-29T09:32:32;26.25;;;11.98;;
63120;SDS011;54478;48.684;20.114;2023-12-29T09:35:00;25.17;;;12.05;;
63120;SDS011;54478;48.684;20.114;2023-12-29T09:37:28;24.17;;;12.02;;
63120;SDS011;54478;48.684;20.114;2023-12-29T09:39:56;25.45;;;11.65;;
63120;SDS011;54478;48.684;20.114;2023-12-29T09:42:24;24.88;;;11.85;;
63120;SDS011;54478;48.684;20.114;2023-12-29T09:44:55;23.63;;;10.53;;
63120;SDS011;54478;48.684;20.114;2023-12-29T09:47:24;19.67;;;10.00;;
63120;SDS011;54478;48.684;20.114;2023-12-29T09:49:53;23.58;;;11.85;;
63120;SDS011;54478;48.684;20.114;2023-12-29T09:52:19;32.25;;;14.48;;
63120;SDS011;54478;48.684;20.114;2023-12-29T09:54:48;34.83;;;15.57;;
63120;SDS011;54478;48.684;20.114;2023-12-29T09:57:18;22.67;;;11.27;;
63120;SDS011;54478;48.684;20.114;2023-12-29T09:59:46;26.25;;;13.55;;
63120;SDS011;54478;48.684;20.114;2023-12-29T10:02:16;23.17;;;12.02;;
63120;SDS011;54478;48.684;20.114;2023-12-29T10:04:44;32.53;;;12.85;;
63120;SDS011;54478;48.684;20.114;2023-12-29T10:07:25;35.05;;;15.95;;
63120;SDS011;54478;48.684;20.114;2023-12-29T10:09:56;39.50;;;21.15;;
63120;SDS011;54478;48.684;20.114;2023-12-29T10:12:24;48.85;;;22.02;;
63120;SDS011;54478;48.684;20.114;2023-12-29T10:17:34;37.78;;;19.55;;
63120;SDS011;54478;48.684;20.114;2023-12-29T10:20:11;33.80;;;17.48;;
63120;SDS011;54478;48.684;20.114;2023-12-29T10:22:41;38.97;;;19.70;;
63120;SDS011;54478;48.684;20.114;2023-12-29T10:25:13;34.92;;;16.60;;
63120;SDS011;54478;48.684;20.114;2023-12-29T10:27:40;29.33;;;12.95;;
63120;SDS011;54478;48.684;20.114;2023-12-29T10:30:09;21.23;;;12.55;;
63120;SDS011;54478;48.684;20.114;2023-12-29T10:32:37;22.33;;;11.88;;
63120;SDS011;54478;48.684;20.114;2023-12-29T10:35:09;23.35;;;11.90;;
63120;SDS011;54478;48.684;20.114;2023-12-29T10:37:37;21.30;;;10.35;;
63120;SDS011;54478;48.684;20.114;2023-12-29T10:40:07;20.77;;;10.35;;
63120;SDS011;54478;48.684;20.114;2023-12-29T10:42:36;56.10;;;24.55;;
63120;SDS011;54478;48.684;20.114;2023-12-29T10:45:19;56.53;;;26.30;;
63120;SDS011;54478;48.684;20.114;2023-12-29T10:47:44;62.97;;;26.60;;
63120;SDS011;54478;48.684;20.114;2023-12-29T10:50:12;46.75;;;20.40;;
63120;SDS011;54478;48.684;20.114;2023-12-29T10:52:38;40.28;;;17.90;;
63120;SDS011;54478;48.684;20.114;2023-12-29T10:55:09;40.72;;;17.55;;
63120;SDS011;54478;48.684;20.114;2023-12-29T10:57:38;54.55;;;25.13;;
63120;SDS011;54478;48.684;20.114;2023-12-29T11:00:06;43.50;;;21.40;;
63120;SDS011;54478;48.684;20.114;2023-12-29T11:02:38;22.10;;;11.68;;
63120;SDS011;54478;48.684;20.114;2023-12-29T11:05:06;21.42;;;11.55;;
63120;SDS011;54478;48.684;20.114;2023-12-29T11:07:36;23.40;;;11.70;;
63120;SDS011;54478;48.684;20.114;2023-12-29T11:10:05;23.50;;;13.85;;
63120;SDS011;54478;48.684;20.114;2023-12-29T11:12:34;30.95;;;14.23;;
63120;SDS011;54478;48.684;20.114;2023-12-29T11:15:03;28.05;;;13.23;;
63120;SDS011;54478;48.684;20.114;2023-12-29T11:17:33;22.90;;;12.63;;
63120;SDS011;54478;48.684;20.114;2023-12-29T11:20:02;26.83;;;12.55;;
63120;SDS011;54478;48.684;20.114;2023-12-29T11:22:31;23.30;;;10.70;;
63120;SDS011;54478;48.684;20.114;2023-12-29T11:25:00;20.35;;;10.75;;
63120;SDS011;54478;48.684;20.114;2023-12-29T11:27:29;27.10;;;12.95;;
63120;SDS011;54478;48.684;20.114;2023-12-29T11:30:00;23.60;;;11.52;;
63120;SDS011;54478;48.684;20.114;2023-12-29T11:32:35;23.92;;;12.23;;
63120;SDS011;54478;48.684;20.114;2023-12-29T11:35:10;25.08;;;12.35;;
63120;SDS011;54478;48.684;20.114;2023-12-29T11:42:51;27.48;;;11.80;;
63120;SDS011;54478;48.684;20.114;2023-12-29T11:45:24;24.00;;;11.93;;
63120;SDS011;54478;48.684;20.114;2023-12-29T11:47:51;31.10;;;13.35;;
63120;SDS011;54478;48.684;20.114;2023-12-29T11:52:57;25.73;;;12.85;;
63120;SDS011;54478;48.684;20.114;2023-12-29T11:55:30;32.30;;;15.85;;
63120;SDS011;54478;48.684;20.114;2023-12-29T11:57:58;34.63;;;16.35;;
63120;SDS011;54478;48.684;20.114;2023-12-29T12:00:40;27.67;;;13.65;;
63120;SDS011;54478;48.684;20.114;2023-12-29T12:03:47;25.73;;;14.15;;
63120;SDS011;54478;48.684;20.114;2023-12-29T12:05:54;29.77;;;12.85;;
63120;SDS011;54478;48.684;20.114;2023-12-29T12:08:29;31.45;;;14.45;;
63120;SDS011;54478;48.684;20.114;2023-12-29T12:10:55;25.13;;;12.30;;
63120;SDS011;54478;48.684;20.114;2023-12-29T12:16:05;25.23;;;12.88;;
63120;SDS011;54478;48.684;20.114;2023-12-29T12:18:33;23.85;;;12.02;;
63120;SDS011;54478;48.684;20.114;2023-12-29T12:21:01;30.83;;;13.35;;
63120;SDS011;54478;48.684;20.114;2023-12-29T12:23:31;23.33;;;11.95;;
63120;SDS011;54478;48.684;20.114;2023-12-29T12:26:01;22.35;;;11.77;;
63120;SDS011;54478;48.684;20.114;2023-12-29T12:28:31;28.27;;;11.55;;
63120;SDS011;54478;48.684;20.114;2023-12-29T12:31:06;30.23;;;11.38;;
63120;SDS011;54478;48.684;20.114;2023-12-29T12:33:34;22.67;;;12.00;;
63120;SDS011;54478;48.684;20.114;2023-12-29T12:36:00;23.25;;;11.98;;
63120;SDS011;54478;48.684;20.114;2023-12-29T12:38:28;24.63;;;10.82;;
63120;SDS011;54478;48.684;20.114;2023-12-29T12:40:59;22.65;;;11.73;;
63120;SDS011;54478;48.684;20.114;2023-12-29T12:43:36;23.80;;;13.13;;
63120;SDS011;54478;48.684;20.114;2023-12-29T12:46:06;26.55;;;12.20;;
63120;SDS011;54478;48.684;20.114;2023-12-29T12:48:44;34.42;;;16.95;;
63120;SDS011;54478;48.684;20.114;2023-12-29T12:51:13;25.08;;;13.93;;
63120;SDS011;54478;48.684;20.114;2023-12-29T12:53:40;27.25;;;14.60;;
63120;SDS011;54478;48.684;20.114;2023-12-29T12:56:08;27.13;;;11.40;;
63120;SDS011;54478;48.684;20.114;2023-12-29T12:58:37;24.52;;;14.32;;
63120;SDS011;54478;48.684;20.114;2023-12-29T13:01:05;30.85;;;14.45;;
63120;SDS011;54478;48.684;20.114;2023-12-29T13:03:33;41.30;;;18.17;;
63120;SDS011;54478;48.684;20.114;2023-12-29T13:06:02;25.38;;;12.98;;
63120;SDS011;54478;48.684;20.114;2023-12-29T13:08:32;29.77;;;14.82;;
63120;SDS011;54478;48.684;20.114;2023-12-29T13:11:01;38.10;;;17.02;;
63120;SDS011;54478;48.684;20.114;2023-12-29T13:13:39;40.20;;;18.33;;
63120;SDS011;54478;48.684;20.114;2023-12-29T13:16:08;47.78;;;19.90;;
63120;SDS011;54478;48.684;20.114;2023-12-29T13:18:34;31.27;;;15.85;;
63120;SDS011;54478;48.684;20.114;2023-12-29T13:21:03;26.35;;;12.18;;
63120;SDS011;54478;48.684;20.114;2023-12-29T13:23:31;25.77;;;12.52;;
63120;SDS011;54478;48.684;20.114;2023-12-29T13:26:07;25.73;;;12.55;;
63120;SDS011;54478;48.684;20.114;2023-12-29T13:28:34;27.00;;;12.70;;
63120;SDS011;54478;48.684;20.114;2023-12-29T13:31:03;43.10;;;21.88;;
63120;SDS011;54478;48.684;20.114;2023-12-29T13:38:58;30.55;;;16.42;;
63120;SDS011;54478;48.684;20.114;2023-12-29T13:41:26;29.60;;;13.27;;
63120;SDS011;54478;48.684;20.114;2023-12-29T13:43:56;36.60;;;16.40;;
63120;SDS011;54478;48.684;20.114;2023-12-29T13:46:25;32.92;;;15.40;;
63120;SDS011;54478;48.684;20.114;2023-12-29T13:48:50;34.53;;;16.92;;
63120;SDS011;54478;48.684;20.114;2023-12-29T13:51:23;29.50;;;15.27;;
63120;SDS011;54478;48.684;20.114;2023-12-29T13:53:59;37.22;;;15.07;;
63120;SDS011;54478;48.684;20.114;2023-12-29T13:56:27;50.35;;;18.75;;
63120;SDS011;54478;48.684;20.114;2023-12-29T13:58:53;31.77;;;15.32;;
63120;SDS011;54478;48.684;20.114;2023-12-29T14:01:21;25.27;;;12.70;;
63120;SDS011;54478;48.684;20.114;2023-12-29T14:03:50;27.83;;;12.65;;
63120;SDS011;54478;48.684;20.114;2023-12-29T14:06:20;37.13;;;14.52;;
63120;SDS011;54478;48.684;20.114;2023-12-29T14:08:49;34.03;;;14.40;;
63120;SDS011;54478;48.684;20.114;2023-12-29T14:11:17;25.73;;;11.88;;
63120;SDS011;54478;48.684;20.114;2023-12-29T14:13:45;32.35;;;15.27;;
63120;SDS011;54478;48.684;20.114;2023-12-29T14:16:14;35.05;;;16.00;;
63120;SDS011;54478;48.684;20.114;2023-12-29T14:21:35;27.70;;;12.93;;
63120;SDS011;54478;48.684;20.114;2023-12-29T14:26:37;23.50;;;11.80;;
63120;SDS011;54478;48.684;20.114;2023-12-29T14:29:06;26.27;;;12.38;;
63120;SDS011;54478;48.684;20.114;2023-12-29T14:31:35;30.95;;;13.05;;
63120;SDS011;54478;48.684;20.114;2023-12-29T14:34:04;25.05;;;11.48;;
63120;SDS011;54478;48.684;20.114;2023-12-29T14:36:32;31.80;;;12.32;;
63120;SDS011;54478;48.684;20.114;2023-12-29T14:39:01;27.67;;;12.57;;
63120;SDS011;54478;48.684;20.114;2023-12-29T14:41:30;34.20;;;14.15;;
63120;SDS011;54478;48.684;20.114;2023-12-29T14:43:58;33.10;;;13.52;;
63120;SDS011;54478;48.684;20.114;2023-12-29T14:46:27;36.83;;;15.20;;